Time;durP1;ratioP1;P1;durP2;ratioP2;P2;SDS_P1;SDS_P2;PMS_P1;PMS_P2;Temp;Humidity;BMP_temperature;BMP_pressure;BME280_temperature;BME280_humidity;BME280_pressure;Samples;Min_cycle;Max_cycle;Signal;HPM_P1;HPM_P2
2022/08/13 00:00:32;;;;;;;;;40.25;32.50;;;;;27.02;27.51;100943.56;6341621;22;45204;-79
2022/08/13 00:03:01;;;;;;;;;28.75;26.00;;;;;27.00;27.88;100937.41;6313291;22;45372;-78
2022/08/13 00:05:26;;;;;;;;;34.00;31.75;;;;;27.02;27.34;100942.69;6312781;22;46016;-80
2022/08/13 00:07:53;;;;;;;;;30.25;26.25;;;;;26.96;27.39;100935.88;6341468;22;45297;-80
2022/08/13 00:12:57;;;;;;;;;24.50;20.25;;;;;26.92;27.77;100946.97;6342535;22;45290;-80
2022/08/13 00:15:35;;;;;;;;;16.75;15.75;;;;;26.89;27.64;100949.91;6311735;22;45517;-79
2022/08/13 00:18:10;;;;;;;;;20.75;19.00;;;;;26.83;27.94;100951.19;6311536;22;47939;-79
2022/08/13 00:20:41;;;;;;;;;18.25;16.75;;;;;26.80;27.85;100946.88;6314883;22;45157;-79
2022/08/13 00:23:15;;;;;;;;;15.50;14.25;;;;;26.75;28.04;100954.41;6314454;22;45308;-78
2022/08/13 00:25:45;;;;;;;;;15.50;15.50;;;;;26.70;28.16;100942.19;6340982;22;45809;-78
2022/08/13 00:28:12;;;;;;;;;16.00;16.00;;;;;26.65;27.77;100944.34;6342903;22;45207;-79
2022/08/13 00:30:38;;;;;;;;;17.25;16.25;;;;;26.63;28.16;100944.47;6341581;22;45238;-78
2022/08/13 00:33:10;;;;;;;;;17.25;14.50;;;;;26.58;28.17;100946.63;6314489;22;45267;-79
2022/08/13 00:35:36;;;;;;;;;16.50;16.00;;;;;26.54;28.01;100951.38;6315109;22;45315;-79
2022/08/13 00:38:05;;;;;;;;;15.75;13.75;;;;;26.52;28.33;100950.59;6340714;22;46708;-78
2022/08/13 00:40:31;;;;;;;;;17.50;16.50;;;;;26.46;28.52;100945.56;6315095;22;45303;-79
2022/08/13 00:43:02;;;;;;;;;16.25;15.50;;;;;26.44;28.29;100947.50;6341286;22;45286;-79
2022/08/13 00:45:30;;;;;;;;;15.50;15.50;;;;;26.40;28.67;100948.66;6343036;22;45113;-79
2022/08/13 00:50:50;;;;;;;;;15.00;15.00;;;;;26.35;28.49;100953.50;6316939;22;45229;-79
2022/08/13 00:53:17;;;;;;;;;16.00;14.25;;;;;26.30;28.48;100953.84;6314723;22;45360;-78
2022/08/13 00:55:51;;;;;;;;;15.75;14.00;;;;;26.28;28.37;100958.47;6341333;22;45196;-79
2022/08/13 00:58:19;;;;;;;;;16.00;15.50;;;;;26.23;28.48;100951.66;6343134;22;45401;-79
2022/08/13 01:00:50;;;;;;;;;14.75;14.50;;;;;26.19;28.72;100959.06;6342184;22;45172;-79
2022/08/13 01:03:17;;;;;;;;;15.00;14.00;;;;;26.15;28.61;100957.53;6343473;22;45255;-80
2022/08/13 01:05:45;;;;;;;;;12.75;12.75;;;;;26.10;28.68;100949.75;6315251;22;45430;-79
2022/08/13 01:08:11;;;;;;;;;12.00;10.75;;;;;26.11;28.78;100958.69;6342777;22;45963;-80
2022/08/13 01:10:42;;;;;;;;;15.75;14.75;;;;;26.10;28.71;100956.97;6314890;22;45195;-80
2022/08/13 01:13:11;;;;;;;;;13.00;13.00;;;;;26.08;28.51;100957.06;6341527;22;45392;-79
2022/08/13 01:15:39;;;;;;;;;13.00;13.00;;;;;26.07;28.57;100962.56;6343176;22;45213;-78
2022/08/13 01:18:07;;;;;;;;;12.75;11.00;;;;;26.04;28.61;100954.69;6342564;22;46110;-78
2022/08/13 01:20:42;;;;;;;;;12.50;11.25;;;;;26.00;28.30;100955.84;6315053;22;45291;-78
2022/08/13 01:23:08;;;;;;;;;13.25;13.25;;;;;25.99;28.67;100954.97;6343390;22;45183;-78
2022/08/13 01:25:34;;;;;;;;;12.75;11.50;;;;;25.94;28.91;100954.41;6314894;22;45238;-78
2022/08/13 01:27:59;;;;;;;;;11.50;9.50;;;;;25.91;28.50;100947.38;6343354;22;46428;-79
2022/08/13 01:30:26;;;;;;;;;15.50;13.00;;;;;25.88;28.94;100952.13;6342349;22;45187;-78
2022/08/13 01:32:54;;;;;;;;;11.25;11.25;;;;;25.85;28.90;100953.19;6344476;22;45210;-79
2022/08/13 01:35:21;;;;;;;;;10.25;9.25;;;;;25.81;28.84;100948.91;6316150;22;45946;-79
2022/08/13 01:37:53;;;;;;;;;10.25;10.25;;;;;25.82;28.90;100949.75;6344019;22;46045;-79
2022/08/13 01:40:19;;;;;;;;;12.25;11.50;;;;;25.78;28.65;100951.78;6341576;22;45239;-79
2022/08/13 01:42:48;;;;;;;;;10.75;9.75;;;;;25.75;28.54;100952.00;6344487;22;45340;-79
2022/08/13 01:45:14;;;;;;;;;11.00;10.75;;;;;25.72;29.00;100957.59;6315199;22;45663;-79
2022/08/13 01:50:29;;;;;;;;;13.25;10.50;;;;;25.69;29.00;100957.78;6343176;22;45116;-78
2022/08/13 01:53:07;;;;;;;;;8.25;8.00;;;;;25.68;28.74;100956.03;6314760;22;45503;-79
2022/08/13 01:55:42;;;;;;;;;7.00;7.00;;;;;25.67;28.96;100951.63;6314998;22;45436;-79
2022/08/13 01:58:10;;;;;;;;;8.50;8.50;;;;;25.65;28.67;100948.16;6341474;22;47489;-79
2022/08/13 02:00:37;;;;;;;;;9.75;8.75;;;;;25.63;28.67;100959.03;6340235;22;45171;-78
2022/08/13 02:03:05;;;;;;;;;10.00;10.00;;;;;25.60;29.04;100952.97;6343168;22;45158;-79
2022/08/13 02:05:32;;;;;;;;;9.00;9.00;;;;;25.57;29.13;100962.13;6342984;22;45399;-78
2022/08/13 02:07:58;;;;;;;;;10.00;8.75;;;;;25.55;28.77;100955.09;6314826;22;48042;-79
2022/08/13 02:10:24;;;;;;;;;9.00;9.00;;;;;25.58;29.02;100962.97;6314618;22;45885;-79
2022/08/13 02:12:51;;;;;;;;;13.00;11.75;;;;;25.55;29.56;100963.16;6342272;22;45165;-79
2022/08/13 02:15:17;;;;;;;;;10.00;9.00;;;;;25.52;28.95;100964.22;6314718;22;45470;-79
2022/08/13 02:17:43;;;;;;;;;11.50;11.50;;;;;25.50;29.18;100961.66;6315102;22;46954;-79
2022/08/13 02:20:19;;;;;;;;;10.00;10.00;;;;;25.45;29.14;100960.22;6342796;22;45307;-78
2022/08/13 02:22:46;;;;;;;;;9.50;9.50;;;;;25.46;29.09;100975.41;6341471;22;45309;-77
2022/08/13 02:25:14;;;;;;;;;10.00;8.25;;;;;25.41;29.30;100967.59;6343293;22;45373;-78
2022/08/13 02:27:40;;;;;;;;;10.25;9.75;;;;;25.41;28.99;100961.34;6341079;22;47453;-78
2022/08/13 02:30:09;;;;;;;;;8.75;7.50;;;;;25.37;28.87;100973.25;6314609;22;45224;-79
2022/08/13 02:32:36;;;;;;;;;8.75;7.00;;;;;25.35;28.73;100969.81;6343352;22;45300;-78
2022/08/13 02:35:04;;;;;;;;;7.00;7.00;;;;;25.28;28.95;100967.47;6340996;22;45900;-78
2022/08/13 02:37:30;;;;;;;;;11.00;10.00;;;;;25.31;29.41;100969.13;6340953;22;47184;-79
2022/08/13 02:39:59;;;;;;;;;10.00;10.00;;;;;25.24;29.13;100957.88;6315119;22;45476;-79
2022/08/13 02:42:31;;;;;;;;;10.00;8.00;;;;;25.23;28.75;100956.16;6343348;22;45227;-79
2022/08/13 02:44:57;;;;;;;;;12.00;9.00;;;;;25.25;29.12;100964.97;6341074;22;45664;-78
2022/08/13 02:47:23;;;;;;;;;10.75;10.75;;;;;25.24;29.50;100965.09;6342682;22;46342;-79
2022/08/13 02:49:51;;;;;;;;;8.75;8.75;;;;;25.22;29.32;100965.19;6314162;22;45250;-79
2022/08/13 02:52:19;;;;;;;;;9.00;7.75;;;;;25.22;29.70;100959.78;6341309;22;45306;-79
2022/08/13 02:54:47;;;;;;;;;11.00;11.00;;;;;25.20;30.13;100959.00;6342331;22;45268;-79
2022/08/13 02:57:13;;;;;;;;;10.25;9.00;;;;;25.19;29.71;100959.13;6314799;22;48168;-78
2022/08/13 02:59:41;;;;;;;;;12.25;10.50;;;;;25.18;30.17;100962.75;6314247;22;45141;-80
2022/08/13 03:02:08;;;;;;;;;13.50;13.50;;;;;25.16;30.43;100962.00;6342625;22;45225;-79
2022/08/13 03:04:34;;;;;;;;;11.00;11.00;;;;;25.14;31.18;100967.44;6314669;22;45326;-79
2022/08/13 03:07:01;;;;;;;;;14.25;14.25;;;;;25.14;31.52;100974.66;6314209;22;47347;-79
2022/08/13 03:09:26;;;;;;;;;16.75;15.25;;;;;25.09;32.33;100962.31;6313685;22;45695;-78
2022/08/13 03:11:52;;;;;;;;;15.25;13.00;;;;;25.11;32.23;100966.78;6314225;22;45248;-78
2022/08/13 03:14:19;;;;;;;;;13.25;13.25;;;;;25.04;33.61;100964.44;6342324;22;45451;-78
2022/08/13 03:16:44;;;;;;;;;13.25;13.25;;;;;25.01;34.60;100956.53;6314128;22;47956;-79
2022/08/13 03:19:10;;;;;;;;;16.25;16.00;;;;;24.98;34.83;100956.72;6340043;22;45401;-78
2022/08/13 03:21:38;;;;;;;;;14.25;13.50;;;;;24.92;35.21;100954.41;6342662;22;45318;-79
2022/08/13 03:24:06;;;;;;;;;13.50;13.50;;;;;24.90;36.01;100952.78;6313659;22;45413;-78
2022/08/13 03:26:33;;;;;;;;;13.50;13.00;;;;;24.85;36.00;100944.97;6314998;22;47195;-78
2022/08/13 03:29:00;;;;;;;;;18.50;17.75;;;;;24.81;35.59;100946.13;6315624;22;45278;-79
2022/08/13 03:31:27;;;;;;;;;15.75;15.00;;;;;24.76;35.90;100954.47;6343793;22;45341;-77
2022/08/13 03:33:53;;;;;;;;;14.00;13.75;;;;;24.71;36.22;100948.50;6315119;22;45719;-79
2022/08/13 03:36:20;;;;;;;;;14.75;14.75;;;;;24.64;36.14;100953.38;6314870;22;47258;-78
2022/08/13 03:38:46;;;;;;;;;14.00;14.00;;;;;24.63;35.40;100961.53;6315406;22;45192;-78
2022/08/13 03:41:11;;;;;;;;;14.75;13.00;;;;;24.60;35.39;100961.72;6315172;22;45296;-79
2022/08/13 03:43:42;;;;;;;;;14.00;13.50;;;;;24.53;35.65;100954.97;6341431;22;45411;-78
2022/08/13 03:46:10;;;;;;;;;19.75;16.75;;;;;24.50;35.16;100960.53;6315102;22;47454;-79
2022/08/13 03:48:36;;;;;;;;;14.50;14.50;;;;;24.47;35.08;100960.72;6315307;22;45226;-79
2022/08/13 03:51:03;;;;;;;;;13.00;12.75;;;;;24.39;35.11;100947.66;6344080;22;45113;-79
2022/08/13 03:53:29;;;;;;;;;12.50;12.50;;;;;24.38;34.87;100954.03;6315089;22;45690;-79
2022/08/13 03:55:56;;;;;;;;;13.00;13.00;;;;;24.35;35.56;100956.84;6343710;22;46419;-78
2022/08/13 03:58:22;;;;;;;;;15.00;15.00;;;;;24.33;35.62;100956.97;6315531;22;45280;-79
2022/08/13 04:00:47;;;;;;;;;16.75;16.25;;;;;24.35;35.40;100960.44;6343758;22;45232;-78
2022/08/13 04:03:24;;;;;;;;;13.50;12.25;;;;;24.35;35.83;100960.44;6343983;22;45392;-79
2022/08/13 04:05:58;;;;;;;;;15.50;13.50;;;;;24.34;36.33;100960.50;6341581;22;48521;-79
2022/08/13 04:08:26;;;;;;;;;15.75;14.00;;;;;24.31;36.27;100963.38;6341293;22;45647;-79
2022/08/13 04:10:52;;;;;;;;;19.50;19.00;;;;;24.29;36.28;100963.47;6344119;22;45167;-78
2022/08/13 04:13:18;;;;;;;;;18.50;15.00;;;;;24.24;36.85;100951.25;6315789;22;45611;-79
2022/08/13 04:15:45;;;;;;;;;18.00;16.25;;;;;24.22;36.33;100962.09;6315466;22;47303;-78
2022/08/13 04:18:15;;;;;;;;;17.50;15.00;;;;;24.19;36.33;100955.06;6343849;22;45345;-79
2022/08/13 04:20:52;;;;;;;;;17.00;17.00;;;;;24.15;36.54;100953.50;6343402;22;45094;-78
2022/08/13 04:23:19;;;;;;;;;17.00;16.50;;;;;24.16;36.63;100957.94;6314988;22;45412;-79
2022/08/13 04:25:47;;;;;;;;;14.25;14.25;;;;;24.15;37.27;100964.25;6315419;22;47569;-79
2022/08/13 04:28:14;;;;;;;;;15.75;14.75;;;;;24.12;37.37;100959.06;6343712;22;45196;-78
2022/08/13 04:30:41;;;;;;;;;17.50;17.25;;;;;24.10;37.33;100960.97;6315629;22;45113;-78
2022/08/13 04:33:09;;;;;;;;;17.25;15.00;;;;;24.09;36.76;100964.63;6343924;22;45152;-79
2022/08/13 04:35:35;;;;;;;;;13.75;13.25;;;;;24.06;37.43;100959.41;6343188;22;46677;-78
2022/08/13 04:38:01;;;;;;;;;17.50;15.50;;;;;24.02;37.47;100954.28;6342917;22;45231;-78
2022/08/13 04:40:27;;;;;;;;;17.25;14.50;;;;;23.97;37.64;100955.41;6343648;22;44722;-79
2022/08/13 04:42:54;;;;;;;;;14.50;13.00;;;;;23.96;36.83;100958.19;6315309;22;45571;-79
2022/08/13 04:45:21;;;;;;;;;15.25;15.25;;;;;23.94;36.65;100957.41;6343734;22;46232;-79
2022/08/13 04:47:47;;;;;;;;;11.50;10.00;;;;;23.90;36.29;100956.72;6341381;22;45226;-79
2022/08/13 04:50:14;;;;;;;;;10.00;9.25;;;;;23.87;35.29;100953.31;6344091;22;45768;-79
2022/08/13 04:52:39;;;;;;;;;10.00;8.75;;;;;23.86;34.75;100957.84;6343389;22;45176;-78
2022/08/13 04:55:06;;;;;;;;;9.75;8.25;;;;;23.84;33.98;100958.88;6343250;22;45711;-78
2022/08/13 04:57:33;;;;;;;;;8.75;8.50;;;;;23.80;34.42;100958.19;6315075;22;45609;-79
2022/08/13 04:59:59;;;;;;;;;8.75;8.75;;;;;23.80;33.70;100962.69;6314647;22;45321;-79
2022/08/13 05:02:24;;;;;;;;;9.50;9.50;;;;;23.77;33.96;100955.66;6315165;22;45462;-79
2022/08/13 05:04:50;;;;;;;;;7.00;7.00;;;;;23.78;33.84;100962.78;6341426;22;47235;-78
2022/08/13 05:07:16;;;;;;;;;8.00;8.00;;;;;23.76;33.81;100952.13;6314940;22;45616;-78
2022/08/13 05:09:41;;;;;;;;;8.00;8.00;;;;;23.79;33.43;100959.16;6343382;22;45185;-79
2022/08/13 05:12:07;;;;;;;;;10.00;7.75;;;;;23.78;33.84;100955.56;6343138;22;45246;-77
2022/08/13 05:14:35;;;;;;;;;10.00;8.75;;;;;23.77;33.74;100961.06;6343013;22;46369;-78
2022/08/13 05:17:03;;;;;;;;;9.50;8.00;;;;;23.77;34.01;100955.66;6314972;22;45255;-79
2022/08/13 05:19:28;;;;;;;;;11.25;10.25;;;;;23.80;34.29;100966.25;6343488;22;45232;-77
2022/08/13 05:21:54;;;;;;;;;12.00;12.00;;;;;23.78;35.12;100963.63;6314336;22;45183;-78
2022/08/13 05:24:20;;;;;;;;;13.75;12.75;;;;;23.83;34.80;100965.22;6340942;22;47281;-78
2022/08/13 05:26:46;;;;;;;;;15.00;12.75;;;;;23.84;35.00;100970.50;6341086;22;45231;-77
2022/08/13 05:29:11;;;;;;;;;13.75;13.25;;;;;23.80;34.87;100963.56;6313592;22;45375;-77
2022/08/13 05:31:37;;;;;;;;;10.50;10.25;;;;;23.84;34.21;100967.78;6313775;22;45257;-77
2022/08/13 05:34:06;;;;;;;;;8.25;8.25;;;;;23.84;33.67;100966.94;6339547;22;45523;-77
2022/08/13 05:36:32;;;;;;;;;8.50;7.50;;;;;23.89;33.90;100971.09;6339752;22;45804;-77
2022/08/13 05:38:58;;;;;;;;;8.50;7.50;;;;;23.89;33.08;100964.88;6339878;22;45384;-77
2022/08/13 05:41:25;;;;;;;;;10.00;9.00;;;;;23.92;32.91;100962.00;6341897;22;45275;-77
2022/08/13 05:43:51;;;;;;;;;9.00;8.75;;;;;23.93;33.15;100964.63;6341786;22;45492;-77
2022/08/13 05:46:18;;;;;;;;;9.25;7.50;;;;;23.98;33.05;100970.59;6313581;22;45603;-77
2022/08/13 05:48:56;;;;;;;;;10.75;9.50;;;;;23.97;33.01;100958.09;6313654;22;45232;-77
2022/08/13 05:51:25;;;;;;;;;10.50;10.50;;;;;24.01;32.32;100969.56;6313175;22;45299;-78
2022/08/13 05:53:54;;;;;;;;;9.00;7.75;;;;;24.01;32.89;100969.56;6313251;22;46976;-78
2022/08/13 05:56:21;;;;;;;;;6.00;6.00;;;;;24.04;32.43;100973.91;6341327;22;45432;-76
2022/08/13 05:58:48;;;;;;;;;8.00;7.00;;;;;24.04;32.62;100972.06;6313495;22;45358;-76
2022/08/13 06:04:00;;;;;;;;;7.25;6.00;;;;;24.08;32.55;100967.38;6341060;22;45262;-77
2022/08/13 06:06:25;;;;;;;;;7.50;7.25;;;;;24.08;32.49;100962.88;6313162;22;45192;-78
2022/08/13 06:08:56;;;;;;;;;8.50;7.50;;;;;24.11;32.39;100970.78;6314590;22;45219;-81
2022/08/13 06:11:21;;;;;;;;;5.50;5.25;;;;;24.16;32.37;100973.19;6341883;22;45399;-80
2022/08/13 06:13:48;;;;;;;;;7.50;7.50;;;;;24.18;32.65;100979.38;6312918;22;48015;-79
2022/08/13 06:16:20;;;;;;;;;6.00;6.00;;;;;24.21;32.29;100976.50;6340964;22;45347;-79
2022/08/13 06:18:48;;;;;;;;;6.00;5.00;;;;;24.23;31.98;100979.97;6313266;22;45431;-77
2022/08/13 06:21:16;;;;;;;;;7.00;6.50;;;;;24.29;32.41;100976.06;6313138;22;45942;-75
2022/08/13 06:23:45;;;;;;;;;5.50;5.50;;;;;24.33;32.28;100981.19;6340324;22;46331;-75
2022/08/13 06:26:12;;;;;;;;;6.25;6.25;;;;;24.37;32.00;100971.09;6341431;22;45365;-79
2022/08/13 06:28:39;;;;;;;;;6.25;5.50;;;;;24.40;31.52;100966.44;6313071;22;45351;-77
2022/08/13 06:31:13;;;;;;;;;7.25;6.75;;;;;24.43;32.20;100966.25;6341039;22;45651;-77
2022/08/13 06:33:38;;;;;;;;;7.00;5.75;;;;;24.49;31.82;100973.13;6340816;22;46172;-77
2022/08/13 06:36:07;;;;;;;;;5.00;5.00;;;;;24.52;31.65;100983.72;6312641;22;45200;-77
2022/08/13 06:38:37;;;;;;;;;8.00;6.75;;;;;24.56;31.63;100976.31;6312603;22;45230;-78
2022/08/13 06:41:05;;;;;;;;;6.75;6.75;;;;;24.61;32.11;100972.38;6341039;22;45329;-78
2022/08/13 06:43:32;;;;;;;;;5.75;5.75;;;;;24.65;31.89;100973.09;6340780;22;45203;-77
2022/08/13 06:45:59;;;;;;;;;6.00;6.00;;;;;24.69;31.57;100973.78;6341353;22;45260;-77
2022/08/13 06:48:27;;;;;;;;;6.00;6.00;;;;;24.75;31.39;100976.97;6341023;22;45352;-78
2022/08/13 06:50:52;;;;;;;;;9.25;7.75;;;;;24.78;31.67;100973.22;6340816;22;45250;-77
2022/08/13 06:53:18;;;;;;;;;5.25;5.25;;;;;24.81;31.51;100973.06;6340500;22;45310;-78
2022/08/13 06:55:48;;;;;;;;;10.75;8.25;;;;;24.87;31.05;100970.00;6340561;22;45303;-79
2022/08/13 06:58:14;;;;;;;;;6.25;6.25;;;;;24.90;31.24;100977.03;6340507;22;45122;-79
2022/08/13 07:00:41;;;;;;;;;6.25;5.00;;;;;24.89;31.50;100973.47;6341105;22;45114;-78
2022/08/13 07:03:07;;;;;;;;;5.00;5.00;;;;;24.96;31.19;100973.94;6342368;22;45277;-78
2022/08/13 07:05:40;;;;;;;;;0.25;0.25;;;;;25.04;31.32;100985.97;6313543;22;45838;-78
2022/08/13 07:08:11;;;;;;;;;9.25;8.50;;;;;25.05;31.24;100982.34;6339929;22;45647;-78
2022/08/13 07:10:46;;;;;;;;;8.25;7.00;;;;;25.14;30.66;100990.84;6313888;22;45215;-78
2022/08/13 07:13:12;;;;;;;;;7.00;6.50;;;;;25.19;31.25;100981.53;6341988;22;45490;-78
2022/08/13 07:15:37;;;;;;;;;7.00;7.00;;;;;25.24;30.74;100983.97;6313594;22;45179;-78
2022/08/13 07:18:04;;;;;;;;;7.00;7.00;;;;;25.29;30.95;100982.72;6342494;22;45120;-79
2022/08/13 07:20:30;;;;;;;;;8.75;6.00;;;;;25.36;31.07;100985.03;6313344;22;46650;-78
2022/08/13 07:22:57;;;;;;;;;6.25;6.25;;;;;25.39;30.82;100979.44;6339453;22;47172;-78
2022/08/13 07:25:24;;;;;;;;;7.00;7.00;;;;;25.49;30.61;100988.69;6313859;22;45629;-78
2022/08/13 07:27:51;;;;;;;;;5.50;5.50;;;;;25.56;30.83;100978.41;6342383;22;45219;-77
2022/08/13 07:30:18;;;;;;;;;5.25;5.25;;;;;25.65;30.70;100981.38;6341208;22;45414;-79
2022/08/13 07:32:43;;;;;;;;;7.25;6.00;;;;;25.68;30.36;100981.16;6341984;22;46390;-78
2022/08/13 07:35:09;;;;;;;;;6.50;6.50;;;;;25.75;30.22;100996.00;6342059;22;45222;-78
2022/08/13 07:37:36;;;;;;;;;5.25;5.25;;;;;25.81;30.79;100997.44;6342262;22;45410;-78
2022/08/13 07:40:04;;;;;;;;;7.00;7.00;;;;;25.89;30.27;100995.16;6313658;22;45470;-78
2022/08/13 07:42:31;;;;;;;;;6.75;6.75;;;;;25.96;30.34;100999.22;6339934;22;47065;-78
2022/08/13 07:45:01;;;;;;;;;6.75;6.75;;;;;26.06;29.89;100999.50;6341990;22;45158;-78
2022/08/13 07:47:29;;;;;;;;;8.50;7.00;;;;;26.11;29.93;100996.47;6342388;22;45283;-81
2022/08/13 07:49:58;;;;;;;;;7.00;5.25;;;;;26.23;30.37;100995.69;6313946;22;45302;-78
2022/08/13 07:52:26;;;;;;;;;9.25;8.00;;;;;26.29;30.29;100992.56;6340945;22;45403;-78
2022/08/13 07:54:52;;;;;;;;;6.00;6.00;;;;;26.39;29.93;100993.72;6340722;22;45269;-78
2022/08/13 07:57:18;;;;;;;;;6.00;6.00;;;;;26.48;30.15;100994.94;6342006;22;45241;-77
2022/08/13 07:59:43;;;;;;;;;6.75;5.50;;;;;26.58;29.53;100993.38;6296682;22;45471;-76
2022/08/13 08:02:09;;;;;;;;;8.00;7.00;;;;;26.68;29.45;100998.16;6278824;22;46048;-76
2022/08/13 08:04:37;;;;;;;;;5.25;5.25;;;;;26.77;29.45;101000.25;6279371;22;45501;-75
2022/08/13 08:07:03;;;;;;;;;8.50;7.25;;;;;26.86;29.04;100993.34;6276974;22;45217;-76
2022/08/13 08:09:31;;;;;;;;;8.50;8.00;;;;;26.95;29.23;100993.59;6279005;22;45160;-77
2022/08/13 08:14:46;;;;;;;;;7.25;6.00;;;;;27.16;29.23;100999.38;6278868;22;45305;-77
2022/08/13 08:17:12;;;;;;;;;6.75;6.75;;;;;27.25;29.07;100996.03;6277554;22;45183;-81
2022/08/13 08:19:40;;;;;;;;;6.75;6.50;;;;;27.34;28.94;101002.63;6279467;22;45225;-80
2022/08/13 08:22:07;;;;;;;;;7.00;6.00;;;;;27.42;28.62;100991.28;6278502;22;46153;-80
2022/08/13 08:24:33;;;;;;;;;6.50;6.50;;;;;27.55;28.20;100997.56;6278528;22;45402;-81
2022/08/13 08:27:04;;;;;;;;;8.00;7.50;;;;;27.67;28.05;101001.25;6278957;22;45270;-81
2022/08/13 08:29:32;;;;;;;;;7.50;7.50;;;;;27.76;28.22;101000.56;6278564;22;45828;-81
2022/08/13 08:31:59;;;;;;;;;7.00;7.00;;;;;27.84;28.35;101000.06;6275464;22;47787;-82
2022/08/13 08:34:25;;;;;;;;;8.00;8.00;;;;;27.94;27.71;101001.13;6276652;22;45410;-82
2022/08/13 08:36:53;;;;;;;;;6.50;6.00;;;;;28.03;27.76;100994.16;6276799;22;45315;-80
2022/08/13 08:43:10;;;;;;;;;6.00;5.75;;;;;28.20;27.36;101001.03;6278521;22;45164;-81
2022/08/13 08:45:01;;;;;;;;;4.50;4.50;;;;;28.28;27.92;100998.63;6251623;22;45447;-79
2022/08/13 08:47:37;;;;;;;;;5.00;5.00;;;;;28.36;27.27;100996.22;6274850;22;45417;-80
2022/08/13 08:50:03;;;;;;;;;4.75;4.75;;;;;28.45;27.30;100997.44;6275250;22;45403;-81
2022/08/13 08:55:15;;;;;;;;;6.50;4.75;;;;;28.64;27.05;101000.47;6276402;22;45361;-83
2022/08/13 08:57:44;;;;;;;;;5.75;5.75;;;;;28.73;26.90;101002.47;6274863;22;45442;-81
2022/08/13 09:00:14;;;;;;;;;6.00;5.00;;;;;28.83;26.59;100999.06;6290841;22;45468;-81
2022/08/13 09:02:39;;;;;;;;;6.00;6.00;;;;;28.89;26.31;100998.59;6306741;22;47371;-78
2022/08/13 09:05:12;;;;;;;;;6.25;5.25;;;;;29.01;26.31;100998.53;6309664;22;45217;-80
2022/08/13 09:07:40;;;;;;;;;4.00;4.00;;;;;29.08;26.50;101000.78;6307689;22;45412;-83
2022/08/13 09:10:06;;;;;;;;;6.75;5.25;;;;;29.17;26.01;100997.38;6308870;22;45288;-82
2022/08/13 09:12:32;;;;;;;;;5.25;5.25;;;;;29.22;26.01;100992.44;6306247;22;47192;-83
2022/08/13 09:14:58;;;;;;;;;5.00;5.00;;;;;29.31;25.33;100999.00;6310266;22;45135;-86
2022/08/13 09:17:26;;;;;;;;;3.75;3.75;;;;;29.37;25.85;100991.22;6308431;22;45354;-86
2022/08/13 09:19:51;;;;;;;;;8.00;6.00;;;;;29.48;26.04;100987.66;6308306;22;45753;-83
2022/08/13 09:22:22;;;;;;;;;5.00;5.00;;;;;29.61;25.31;100995.69;6307301;22;47128;-83
2022/08/13 09:24:48;;;;;;;;;4.75;4.75;;;;;29.65;25.18;100986.38;6334690;22;45226;-85
2022/08/13 09:27:17;;;;;;;;;3.50;3.50;;;;;29.72;25.34;100986.72;6310799;22;45273;-86
2022/08/13 09:29:45;;;;;;;;;5.00;5.00;;;;;29.80;25.11;100987.81;6308758;22;45433;-83
2022/08/13 09:32:13;;;;;;;;;3.25;3.25;;;;;29.89;24.79;100989.81;6307857;22;46416;-83
2022/08/13 09:34:44;;;;;;;;;3.25;3.25;;;;;29.93;24.63;100984.97;6309157;22;45093;-83
2022/08/13 09:37:11;;;;;;;;;3.00;3.00;;;;;29.98;24.35;100995.47;6307643;22;45323;-83
2022/08/13 09:39:49;;;;;;;;;5.00;4.00;;;;;30.01;24.33;100987.94;6306528;22;45274;-83
2022/08/13 09:42:26;;;;;;;;;5.75;5.75;;;;;30.09;24.66;100984.59;6307388;22;47642;-82
2022/08/13 09:44:56;;;;;;;;;4.00;4.00;;;;;30.17;24.08;100994.81;6309849;22;45318;-82
2022/08/13 09:47:22;;;;;;;;;4.50;4.00;;;;;30.34;23.78;100997.06;6308240;22;45223;-83
2022/08/13 09:49:48;;;;;;;;;5.00;4.00;;;;;30.42;24.39;100990.94;6310172;22;45509;-81
2022/08/13 09:52:19;;;;;;;;;5.00;5.00;;;;;30.51;24.27;100988.34;6309354;22;46041;-81
2022/08/13 09:54:44;;;;;;;;;4.50;4.50;;;;;30.63;23.74;100991.88;6309623;22;45420;-81
2022/08/13 09:57:10;;;;;;;;;3.00;2.75;;;;;30.71;23.59;100983.94;6307815;22;45304;-82
2022/08/13 09:59:36;;;;;;;;;2.75;2.75;;;;;30.81;23.05;100978.59;6307218;22;45468;-83
2022/08/13 10:02:09;;;;;;;;;3.00;3.00;;;;;30.91;22.86;100984.13;6307707;22;47155;-80
2022/08/13 10:04:37;;;;;;;;;3.00;3.00;;;;;30.99;22.95;100982.47;6309253;22;45406;-82
2022/08/13 10:07:02;;;;;;;;;4.00;4.00;;;;;31.07;23.21;100972.78;6307513;22;45253;-82
2022/08/13 10:09:28;;;;;;;;;4.25;4.25;;;;;31.12;22.69;100973.25;6307418;22;45471;-82
2022/08/13 10:11:54;;;;;;;;;4.25;4.25;;;;;31.24;22.83;100971.31;6309489;22;46404;-82
2022/08/13 10:14:19;;;;;;;;;4.00;2.50;;;;;31.36;22.77;100960.22;6307529;22;46093;-81
2022/08/13 10:16:45;;;;;;;;;2.67;2.67;;;;;31.51;22.60;100963.47;6307465;22;45292;-82
2022/08/13 10:19:10;;;;;;;;;3.50;3.50;;;;;31.62;22.33;100968.84;6307514;22;45152;-82
2022/08/13 10:21:35;;;;;;;;;4.50;4.50;;;;;31.70;22.04;100970.00;6309152;22;45381;-82
2022/08/13 10:24:01;;;;;;;;;3.00;3.00;;;;;31.79;21.87;100967.31;6309293;22;45254;-82
2022/08/13 10:26:27;;;;;;;;;4.25;4.25;;;;;31.83;21.74;100963.31;6307270;22;45243;-82
2022/08/13 10:28:52;;;;;;;;;0.00;0.00;;;;;31.88;21.53;100954.72;6307693;22;45361;-82
2022/08/13 10:31:17;;;;;;;;;3.00;3.00;;;;;31.98;21.34;100962.97;6306465;22;47390;-81
2022/08/13 10:33:43;;;;;;;;;3.75;3.75;;;;;32.08;21.25;100972.03;6308272;22;45480;-80
2022/08/13 10:36:10;;;;;;;;;3.00;3.00;;;;;32.12;21.59;100954.38;6308796;22;45455;-79
2022/08/13 10:38:35;;;;;;;;;3.50;3.25;;;;;32.26;21.42;100954.00;6307996;22;45125;-79
2022/08/13 10:41:10;;;;;;;;;3.25;3.25;;;;;32.43;21.26;100949.69;6306200;22;47759;-79
2022/08/13 10:43:39;;;;;;;;;4.50;4.50;;;;;32.65;20.65;100954.03;6309497;22;45467;-79
2022/08/13 10:46:11;;;;;;;;;4.50;4.00;;;;;32.81;20.31;100947.13;6307637;22;45481;-79
2022/08/13 10:48:37;;;;;;;;;4.75;4.50;;;;;32.90;20.33;100951.72;6306386;22;45492;-80
2022/08/13 10:51:03;;;;;;;;;3.25;3.25;;;;;33.02;20.20;100947.00;6303730;22;47334;-80
2022/08/13 10:56:13;;;;;;;;;2.75;2.75;;;;;33.28;20.32;100949.94;6308235;22;45206;-79
2022/08/13 10:58:39;;;;;;;;;4.50;3.00;;;;;33.36;19.93;100944.59;6309027;22;45208;-80
2022/08/13 11:01:05;;;;;;;;;3.75;3.75;;;;;33.48;19.71;100939.81;6337480;22;46043;-80
2022/08/13 11:03:31;;;;;;;;;2.25;2.25;;;;;33.58;20.19;100944.25;6312182;22;45401;-80
2022/08/13 11:05:59;;;;;;;;;0.50;0.50;;;;;33.70;20.01;100920.34;6311656;22;45338;-80
2022/08/13 11:08:28;;;;;;;;;3.25;3.25;;;;;33.87;19.60;100940.53;6311515;22;45306;-79
2022/08/13 11:10:53;;;;;;;;;4.25;4.25;;;;;33.88;18.98;100933.19;6338534;22;47414;-80
2022/08/13 11:13:19;;;;;;;;;4.75;4.75;;;;;33.89;19.31;100938.47;6340500;22;45095;-80
2022/08/13 11:15:44;;;;;;;;;3.25;3.25;;;;;33.90;18.53;100929.28;6338573;22;45113;-79
2022/08/13 11:18:10;;;;;;;;;4.50;4.50;;;;;33.98;19.02;100929.38;6340537;22;45143;-79
2022/08/13 11:21:02;;;;;;;;;6.00;4.50;;;;;34.06;18.80;100925.91;6312067;22;46252;-79
2022/08/13 11:23:29;;;;;;;;;3.00;3.00;;;;;34.28;18.54;100935.53;6339038;22;45346;-79
2022/08/13 11:25:56;;;;;;;;;3.25;3.25;;;;;34.42;18.34;100937.72;6312492;22;45189;-79
2022/08/13 11:28:22;;;;;;;;;10.00;7.75;;;;;34.45;18.42;100925.59;6311520;22;45278;-77
2022/08/13 11:30:48;;;;;;;;;2.50;2.50;;;;;34.52;18.59;100931.31;6339545;22;45378;-78
2022/08/13 11:33:14;;;;;;;;;3.75;3.75;;;;;34.54;18.28;100929.25;6336942;22;45396;-76
2022/08/13 11:35:43;;;;;;;;;2.75;2.75;;;;;34.61;18.62;100923.03;6312065;22;45344;-77
2022/08/13 11:38:10;;;;;;;;;5.00;5.00;;;;;34.78;17.96;100918.59;6337639;22;45370;-78
2022/08/13 11:40:37;;;;;;;;;2.50;2.50;;;;;35.02;18.00;100912.44;6340348;22;45487;-79
2022/08/13 11:43:02;;;;;;;;;2.50;2.50;;;;;35.23;17.20;100906.59;6340252;22;45377;-78